Time;durP1;ratioP1;P1;durP2;ratioP2;P2;SDS_P1;SDS_P2;PMS_P1;PMS_P2;Temp;Humidity;BMP_temperature;BMP_pressure;BME280_temperature;BME280_humidity;BME280_pressure;Samples;Min_cycle;Max_cycle;Signal;HPM_P1;HPM_P2
2023/12/07 00:03:24;;;;;;;98.03;38.23;;;;;;;;;;10433179;28;20054;-83
2023/12/07 00:08:25;;;;;;;92.37;35.23;;;;;;;;;;10446270;28;20453;-82
2023/12/07 00:13:26;;;;;;;95.00;36.43;;;;;;;;;;10452668;28;20025;-82
2023/12/07 00:18:27;;;;;;;98.00;38.10;;;;;;;;;;10422401;28;20392;-82
2023/12/07 00:23:28;;;;;;;104.97;38.47;;;;;;;;;;10437089;28;20068;-84
2023/12/07 00:28:29;;;;;;;91.47;33.13;;;;;;;;;;10443768;28;20674;-83
2023/12/07 00:33:31;;;;;;;112.63;40.73;;;;;;;;;;10493494;28;20036;-82
2023/12/07 00:38:32;;;;;;;112.53;40.13;;;;;;;;;;10497751;28;20024;-82
2023/12/07 00:43:33;;;;;;;108.00;43.00;;;;;;;;;;10493280;28;20439;-82
2023/12/07 00:48:34;;;;;;;110.77;43.07;;;;;;;;;;10500568;28;20089;-82
2023/12/07 00:53:35;;;;;;;113.07;43.50;;;;;;;;;;10493624;28;20037;-81
2023/12/07 00:58:38;;;;;;;122.10;44.40;;;;;;;;;;10492010;28;20043;-82
2023/12/07 01:03:40;;;;;;;113.57;40.90;;;;;;;;;;10491613;28;20036;-82
2023/12/07 01:08:41;;;;;;;121.77;42.83;;;;;;;;;;10486544;28;20082;-82
2023/12/07 01:13:42;;;;;;;111.03;43.50;;;;;;;;;;10486083;28;20545;-82
2023/12/07 01:18:44;;;;;;;116.70;44.43;;;;;;;;;;10486407;28;20028;-82
2023/12/07 01:23:45;;;;;;;109.23;44.57;;;;;;;;;;10494474;28;20040;-82
2023/12/07 01:28:46;;;;;;;134.03;46.07;;;;;;;;;;10471620;28;20106;-82
2023/12/07 01:33:47;;;;;;;114.93;40.27;;;;;;;;;;10491757;28;20025;-82
2023/12/07 01:38:48;;;;;;;124.53;43.07;;;;;;;;;;10500373;28;20041;-82
2023/12/07 01:43:49;;;;;;;129.30;45.30;;;;;;;;;;10490701;28;20128;-82
2023/12/07 01:48:50;;;;;;;118.23;42.03;;;;;;;;;;10490351;28;20099;-83
2023/12/07 01:53:58;;;;;;;117.40;41.20;;;;;;;;;;10500340;28;20036;-81
2023/12/07 01:59:06;;;;;;;122.20;44.27;;;;;;;;;;10490072;28;20500;-82
2023/12/07 02:04:07;;;;;;;130.73;46.40;;;;;;;;;;10511766;28;20040;-82
2023/12/07 02:09:09;;;;;;;132.43;43.67;;;;;;;;;;10499489;28;20107;-82
2023/12/07 02:14:10;;;;;;;128.33;41.70;;;;;;;;;;10491636;28;20039;-81
2023/12/07 02:19:34;;;;;;;128.37;43.70;;;;;;;;;;10489498;28;20119;-83
2023/12/07 02:24:37;;;;;;;111.70;39.50;;;;;;;;;;10483226;28;20261;-82
2023/12/07 02:29:38;;;;;;;120.77;41.93;;;;;;;;;;10490361;28;20084;-83
2023/12/07 02:34:39;;;;;;;115.23;39.07;;;;;;;;;;10481950;28;20021;-82
2023/12/07 02:39:40;;;;;;;124.60;41.97;;;;;;;;;;10496109;28;20041;-82
2023/12/07 02:44:41;;;;;;;122.03;39.93;;;;;;;;;;10489021;28;20036;-82
2023/12/07 02:49:42;;;;;;;128.83;41.83;;;;;;;;;;10485417;28;20178;-82
2023/12/07 02:54:43;;;;;;;132.67;43.63;;;;;;;;;;10490284;28;20064;-81
2023/12/07 02:59:45;;;;;;;138.70;45.57;;;;;;;;;;10501522;28;20043;-81
2023/12/07 03:04:46;;;;;;;120.43;38.63;;;;;;;;;;10488334;28;20427;-82
2023/12/07 03:09:47;;;;;;;120.13;40.57;;;;;;;;;;10483315;28;20048;-82
2023/12/07 03:14:48;;;;;;;130.87;41.40;;;;;;;;;;10481771;28;20024;-81
2023/12/07 03:19:49;;;;;;;133.30;42.77;;;;;;;;;;10489088;28;20039;-83
2023/12/07 03:24:51;;;;;;;129.50;43.03;;;;;;;;;;10502525;28;20053;-82
2023/12/07 03:29:52;;;;;;;139.47;43.17;;;;;;;;;;10484403;28;20139;-82
2023/12/07 03:34:53;;;;;;;121.63;38.83;;;;;;;;;;10474428;28;20113;-83
2023/12/07 03:39:54;;;;;;;132.13;43.27;;;;;;;;;;10480383;28;20111;-82
2023/12/07 03:44:56;;;;;;;119.60;43.77;;;;;;;;;;10482324;28;20139;-83
2023/12/07 03:49:57;;;;;;;130.20;44.23;;;;;;;;;;10489254;28;20024;-82
2023/12/07 03:54:58;;;;;;;129.77;42.83;;;;;;;;;;10496317;28;20110;-83
2023/12/07 03:59:59;;;;;;;118.80;39.37;;;;;;;;;;10501397;28;20055;-82
2023/12/07 04:05:05;;;;;;;138.17;43.00;;;;;;;;;;10483384;28;20075;-82
2023/12/07 04:10:06;;;;;;;136.75;42.80;;;;;;;;;;10499710;28;20036;-82
2023/12/07 04:15:08;;;;;;;129.23;39.07;;;;;;;;;;10487474;28;20027;-81
2023/12/07 04:20:09;;;;;;;116.27;40.20;;;;;;;;;;10490621;28;20482;-82
2023/12/07 04:25:10;;;;;;;132.23;42.70;;;;;;;;;;10512713;28;20052;-81
2023/12/07 04:30:12;;;;;;;128.13;45.20;;;;;;;;;;10497920;28;20056;-81
2023/12/07 04:35:13;;;;;;;155.23;46.27;;;;;;;;;;10498379;28;20139;-81
2023/12/07 04:40:14;;;;;;;146.23;46.97;;;;;;;;;;10488705;28;20501;-81
2023/12/07 04:45:15;;;;;;;144.53;47.53;;;;;;;;;;10491703;28;20511;-82
2023/12/07 04:50:16;;;;;;;150.40;48.27;;;;;;;;;;10490889;28;20472;-81
2023/12/07 04:55:17;;;;;;;151.30;47.37;;;;;;;;;;10484659;28;20112;-82
2023/12/07 05:00:18;;;;;;;148.53;47.13;;;;;;;;;;10497964;28;20576;-81
2023/12/07 05:05:20;;;;;;;128.80;43.70;;;;;;;;;;10494586;28;20089;-82
2023/12/07 05:10:21;;;;;;;143.93;46.70;;;;;;;;;;10494307;28;20478;-81
2023/12/07 05:15:22;;;;;;;128.47;43.27;;;;;;;;;;10486719;28;20036;-81
2023/12/07 05:20:24;;;;;;;122.37;40.00;;;;;;;;;;10492172;28;20035;-81
2023/12/07 05:25:25;;;;;;;125.20;39.80;;;;;;;;;;10491129;28;20212;-81
2023/12/07 05:30:27;;;;;;;109.47;38.00;;;;;;;;;;10475630;28;20107;-81
2023/12/07 05:35:28;;;;;;;117.23;38.20;;;;;;;;;;10473845;28;20028;-81
2023/12/07 05:40:29;;;;;;;112.23;40.37;;;;;;;;;;10487740;28;20044;-81
2023/12/07 05:45:31;;;;;;;130.27;39.60;;;;;;;;;;10471407;28;20072;-82
2023/12/07 05:50:32;;;;;;;126.57;39.87;;;;;;;;;;10490345;28;20087;-82
2023/12/07 05:55:33;;;;;;;146.90;42.73;;;;;;;;;;10490001;28;20028;-82
2023/12/07 06:00:34;;;;;;;145.73;45.47;;;;;;;;;;10491819;28;20077;-81
2023/12/07 06:05:35;;;;;;;154.27;43.37;;;;;;;;;;10487139;28;20056;-81
2023/12/07 06:10:36;;;;;;;145.23;44.27;;;;;;;;;;10490043;28;20170;-81
2023/12/07 06:15:37;;;;;;;131.17;41.33;;;;;;;;;;10490430;28;20036;-81
2023/12/07 06:20:39;;;;;;;121.87;40.60;;;;;;;;;;10485399;28;20028;-82
2023/12/07 06:25:40;;;;;;;124.50;40.77;;;;;;;;;;10484682;28;20040;-82
2023/12/07 06:30:41;;;;;;;138.07;42.40;;;;;;;;;;10488651;28;20144;-82
2023/12/07 06:35:50;;;;;;;115.37;40.63;;;;;;;;;;10488713;28;20139;-82
2023/12/07 06:40:52;;;;;;;118.27;39.53;;;;;;;;;;10480816;28;20448;-82
2023/12/07 06:45:53;;;;;;;104.17;40.03;;;;;;;;;;10490073;28;20801;-82
2023/12/07 06:50:54;;;;;;;107.90;38.53;;;;;;;;;;10489357;28;20028;-82
2023/12/07 06:55:55;;;;;;;109.33;37.27;;;;;;;;;;10483681;28;20024;-82
2023/12/07 07:00:57;;;;;;;102.00;36.53;;;;;;;;;;10485454;28;20151;-82
2023/12/07 07:05:59;;;;;;;101.63;37.33;;;;;;;;;;10488462;28;20033;-82
2023/12/07 07:11:00;;;;;;;105.63;37.53;;;;;;;;;;10478660;28;20033;-84
2023/12/07 07:16:01;;;;;;;104.10;41.33;;;;;;;;;;10481791;28;20090;-82
2023/12/07 07:21:04;;;;;;;122.37;43.33;;;;;;;;;;10485249;28;20540;-82
2023/12/07 07:26:05;;;;;;;111.87;42.80;;;;;;;;;;10480046;28;20036;-82
2023/12/07 07:31:12;;;;;;;115.87;41.33;;;;;;;;;;10482253;28;20113;-82
2023/12/07 07:36:17;;;;;;;105.13;38.90;;;;;;;;;;10465660;28;20036;-82
2023/12/07 07:41:18;;;;;;;116.97;43.37;;;;;;;;;;10478484;28;20472;-82
2023/12/07 07:46:19;;;;;;;124.50;44.47;;;;;;;;;;10478836;28;20074;-82
2023/12/07 07:51:20;;;;;;;116.70;43.13;;;;;;;;;;10489194;28;20601;-82
2023/12/07 07:56:35;;;;;;;108.70;40.17;;;;;;;;;;10482168;28;20021;-82
2023/12/07 08:01:36;;;;;;;102.83;37.23;;;;;;;;;;10487244;28;20067;-82
2023/12/07 08:06:37;;;;;;;111.27;39.00;;;;;;;;;;10485942;28;20494;-82
2023/12/07 08:11:38;;;;;;;106.87;39.43;;;;;;;;;;10480173;28;20128;-82
2023/12/07 08:16:42;;;;;;;111.13;41.10;;;;;;;;;;10480057;28;20090;-82
2023/12/07 08:21:43;;;;;;;112.40;41.67;;;;;;;;;;10482561;28;20037;-82
2023/12/07 08:26:44;;;;;;;106.03;38.60;;;;;;;;;;10491828;28;20052;-82
2023/12/07 08:31:52;;;;;;;92.83;34.40;;;;;;;;;;10493014;28;20144;-82
2023/12/07 08:36:53;;;;;;;100.20;36.47;;;;;;;;;;10481454;28;20032;-82
2023/12/07 08:41:54;;;;;;;99.33;38.37;;;;;;;;;;10485529;28;20588;-81
2023/12/07 08:46:55;;;;;;;97.33;35.70;;;;;;;;;;10494205;28;20056;-82
2023/12/07 08:51:57;;;;;;;98.70;38.20;;;;;;;;;;10482349;28;20119;-82
2023/12/07 08:56:58;;;;;;;94.47;38.37;;;;;;;;;;10484062;28;20123;-82
2023/12/07 09:01:59;;;;;;;89.30;34.80;;;;;;;;;;10486995;28;20388;-82
2023/12/07 09:07:01;;;;;;;90.27;35.77;;;;;;;;;;10474853;28;20044;-82
2023/12/07 09:12:02;;;;;;;94.83;36.53;;;;;;;;;;10486480;28;20036;-82
2023/12/07 09:17:03;;;;;;;87.67;35.17;;;;;;;;;;10479543;28;20052;-83
2023/12/07 09:22:04;;;;;;;89.13;36.40;;;;;;;;;;10488991;28;20526;-82
2023/12/07 09:27:05;;;;;;;80.67;34.87;;;;;;;;;;10484464;28;20125;-81
2023/12/07 09:32:07;;;;;;;86.33;33.37;;;;;;;;;;10457079;28;20137;-82
2023/12/07 09:37:09;;;;;;;80.10;32.73;;;;;;;;;;10451036;28;20485;-82
2023/12/07 09:42:10;;;;;;;94.57;35.80;;;;;;;;;;10431818;28;20559;-82
2023/12/07 09:47:11;;;;;;;77.17;33.73;;;;;;;;;;10442042;28;20384;-82
2023/12/07 09:52:14;;;;;;;76.90;31.53;;;;;;;;;;10450611;28;20061;-82
2023/12/07 09:57:15;;;;;;;83.93;33.80;;;;;;;;;;10437527;28;20124;-82
2023/12/07 10:02:16;;;;;;;75.80;32.10;;;;;;;;;;10450556;28;20029;-82
2023/12/07 10:07:18;;;;;;;77.87;33.10;;;;;;;;;;10449136;28;20155;-82
2023/12/07 10:12:20;;;;;;;77.37;31.23;;;;;;;;;;10443080;28;20028;-82
2023/12/07 10:17:21;;;;;;;86.13;32.93;;;;;;;;;;10430536;28;20037;-82
2023/12/07 10:22:22;;;;;;;78.53;32.10;;;;;;;;;;10449769;28;20120;-82
2023/12/07 10:27:23;;;;;;;69.73;29.73;;;;;;;;;;10447031;28;20061;-82
2023/12/07 10:32:24;;;;;;;77.63;29.60;;;;;;;;;;10459970;28;20396;-82
2023/12/07 10:37:25;;;;;;;78.63;28.70;;;;;;;;;;10489195;28;20025;-82
2023/12/07 10:42:29;;;;;;;74.30;31.67;;;;;;;;;;10489889;28;20040;-82
2023/12/07 10:47:32;;;;;;;73.07;30.47;;;;;;;;;;10476552;28;20036;-82
2023/12/07 10:52:35;;;;;;;70.20;30.47;;;;;;;;;;10489563;28;20024;-82
2023/12/07 10:57:38;;;;;;;71.37;32.80;;;;;;;;;;10490256;28;20021;-82
2023/12/07 11:02:41;;;;;;;77.07;32.17;;;;;;;;;;10489668;28;20033;-82
2023/12/07 11:07:45;;;;;;;75.33;32.40;;;;;;;;;;10490039;28;20039;-82
2023/12/07 11:12:49;;;;;;;82.17;32.23;;;;;;;;;;10489924;28;20028;-82
2023/12/07 11:17:52;;;;;;;74.80;31.17;;;;;;;;;;10488899;28;20116;-82
2023/12/07 11:22:56;;;;;;;80.77;31.80;;;;;;;;;;10489563;28;20068;-82
2023/12/07 11:28:01;;;;;;;84.83;33.93;;;;;;;;;;10488557;28;20048;-82
2023/12/07 11:33:06;;;;;;;86.80;36.43;;;;;;;;;;10485315;28;20057;-82
2023/12/07 11:38:14;;;;;;;89.80;37.40;;;;;;;;;;10479420;28;20025;-82
2023/12/07 11:43:39;;;;;;;96.87;39.10;;;;;;;;;;10457782;28;20060;-82
2023/12/07 11:48:46;;;;;;;106.37;42.17;;;;;;;;;;10468559;28;20048;-82
2023/12/07 11:53:48;;;;;;;102.57;42.57;;;;;;;;;;10495987;28;20558;-82
2023/12/07 11:58:50;;;;;;;106.33;44.60;;;;;;;;;;10441784;28;20072;-82
2023/12/07 12:03:51;;;;;;;111.30;43.13;;;;;;;;;;10483199;28;20102;-82
2023/12/07 12:08:52;;;;;;;106.83;45.00;;;;;;;;;;10477747;28;20032;-82
2023/12/07 12:13:53;;;;;;;95.83;38.40;;;;;;;;;;10467207;28;20052;-82
2023/12/07 12:19:01;;;;;;;103.63;41.77;;;;;;;;;;10461080;28;20114;-82
2023/12/07 12:24:02;;;;;;;97.80;39.60;;;;;;;;;;10494744;28;20051;-82
2023/12/07 12:29:03;;;;;;;101.43;41.33;;;;;;;;;;10484207;28;20139;-82
2023/12/07 12:34:12;;;;;;;106.60;43.37;;;;;;;;;;10453502;28;20108;-82
2023/12/07 12:39:13;;;;;;;92.03;36.93;;;;;;;;;;10453221;28;20029;-82
2023/12/07 12:44:14;;;;;;;98.93;39.17;;;;;;;;;;10443041;28;20064;-83
2023/12/07 12:49:18;;;;;;;96.20;39.83;;;;;;;;;;10453394;28;20116;-82
2023/12/07 12:54:21;;;;;;;95.83;39.10;;;;;;;;;;10450486;28;20028;-82
2023/12/07 12:59:22;;;;;;;89.30;37.30;;;;;;;;;;10437564;28;20038;-82
2023/12/07 13:04:23;;;;;;;96.20;38.73;;;;;;;;;;10448960;28;20044;-82
2023/12/07 13:09:25;;;;;;;89.07;36.80;;;;;;;;;;10449167;28;20184;-82
2023/12/07 13:14:27;;;;;;;91.23;37.40;;;;;;;;;;10439415;28;20028;-81
2023/12/07 13:19:28;;;;;;;98.37;38.63;;;;;;;;;;10440602;28;20029;-82
2023/12/07 13:24:29;;;;;;;99.73;39.60;;;;;;;;;;10442570;28;20060;-81
2023/12/07 13:29:30;;;;;;;87.40;35.30;;;;;;;;;;10440542;28;20386;-81
2023/12/07 13:34:31;;;;;;;97.70;38.47;;;;;;;;;;10434278;28;20079;-82
2023/12/07 13:39:32;;;;;;;106.50;40.73;;;;;;;;;;10444325;28;20020;-80
2023/12/07 13:44:34;;;;;;;100.63;40.60;;;;;;;;;;10414513;28;20067;-81
2023/12/07 13:49:35;;;;;;;93.63;39.80;;;;;;;;;;10436340;28;20108;-81
2023/12/07 13:54:49;;;;;;;88.13;36.20;;;;;;;;;;10440974;28;20029;-81
2023/12/07 13:59:51;;;;;;;92.20;35.73;;;;;;;;;;10429755;28;20404;-81
2023/12/07 14:04:52;;;;;;;96.07;39.57;;;;;;;;;;10410136;28;20067;-81
2023/12/07 14:09:53;;;;;;;97.50;37.70;;;;;;;;;;10425868;28;20036;-82
2023/12/07 14:14:55;;;;;;;84.43;35.07;;;;;;;;;;10441891;28;20025;-81
2023/12/07 14:19:56;;;;;;;92.93;37.73;;;;;;;;;;10435045;28;20036;-81
2023/12/07 14:24:57;;;;;;;88.60;35.93;;;;;;;;;;10425754;28;20052;-81
2023/12/07 14:29:58;;;;;;;95.30;40.33;;;;;;;;;;10434989;28;20144;-81
2023/12/07 14:34:59;;;;;;;93.90;38.20;;;;;;;;;;10443444;28;20033;-80
2023/12/07 14:40:00;;;;;;;97.70;40.10;;;;;;;;;;10446418;28;20071;-81
2023/12/07 14:45:02;;;;;;;98.07;40.63;;;;;;;;;;10431287;28;20103;-82
2023/12/07 14:50:03;;;;;;;117.97;45.67;;;;;;;;;;10445453;28;20116;-83
2023/12/07 14:55:05;;;;;;;126.77;46.03;;;;;;;;;;10442239;28;20119;-83
2023/12/07 15:00:07;;;;;;;120.27;44.87;;;;;;;;;;10437177;28;20059;-82
2023/12/07 15:05:08;;;;;;;110.20;43.47;;;;;;;;;;10447286;28;20037;-83
2023/12/07 15:10:09;;;;;;;104.77;41.00;;;;;;;;;;10431690;28;20112;-82
2023/12/07 15:15:10;;;;;;;110.23;43.47;;;;;;;;;;10445513;28;20132;-82
2023/12/07 15:20:11;;;;;;;102.80;39.70;;;;;;;;;;10442722;28;20032;-85
2023/12/07 15:25:13;;;;;;;105.20;42.20;;;;;;;;;;10448295;28;20041;-83
2023/12/07 15:30:15;;;;;;;114.00;42.13;;;;;;;;;;10451613;28;20430;-81
2023/12/07 15:35:17;;;;;;;115.30;43.50;;;;;;;;;;10488428;28;20033;-84
2023/12/07 15:40:18;;;;;;;103.17;39.50;;;;;;;;;;10494242;28;20111;-86
2023/12/07 15:45:19;;;;;;;112.20;40.00;;;;;;;;;;10496616;28;20491;-83
2023/12/07 15:50:20;;;;;;;98.93;37.40;;;;;;;;;;10481680;28;20108;-84
2023/12/07 15:55:21;;;;;;;105.07;39.10;;;;;;;;;;10474945;28;20039;-83
2023/12/07 16:00:22;;;;;;;100.17;39.30;;;;;;;;;;10493337;28;20070;-81
2023/12/07 16:05:23;;;;;;;113.43;40.87;;;;;;;;;;10491821;28;20033;-80
2023/12/07 16:10:24;;;;;;;118.77;43.37;;;;;;;;;;10485187;28;20075;-81
2023/12/07 16:15:25;;;;;;;113.80;43.73;;;;;;;;;;10483113;28;20116;-87
2023/12/07 16:20:26;;;;;;;120.03;43.70;;;;;;;;;;10505316;28;20028;-84
2023/12/07 16:25:27;;;;;;;117.50;44.93;;;;;;;;;;10490565;28;20048;-85
2023/12/07 16:30:28;;;;;;;118.33;43.53;;;;;;;;;;10480843;28;20052;-84
2023/12/07 16:35:30;;;;;;;117.60;43.23;;;;;;;;;;10502122;28;20723;-83
2023/12/07 16:40:38;;;;;;;117.97;46.37;;;;;;;;;;10492585;28;20063;-85
2023/12/07 16:45:39;;;;;;;128.23;47.03;;;;;;;;;;10471400;28;20144;-83
2023/12/07 16:50:40;;;;;;;135.00;50.43;;;;;;;;;;10488364;28;20115;-84
2023/12/07 16:55:43;;;;;;;132.23;50.90;;;;;;;;;;10499201;28;20033;-84
2023/12/07 17:00:44;;;;;;;124.03;47.50;;;;;;;;;;10495951;28;20472;-84
2023/12/07 17:05:48;;;;;;;126.33;47.27;;;;;;;;;;10498541;28;20068;-84
2023/12/07 17:10:49;;;;;;;125.03;46.63;;;;;;;;;;10507437;28;20078;-84
2023/12/07 17:15:50;;;;;;;121.10;50.53;;;;;;;;;;10486435;28;20108;-82
2023/12/07 17:20:52;;;;;;;128.43;48.47;;;;;;;;;;10497091;28;20029;-84
2023/12/07 17:25:53;;;;;;;129.43;45.93;;;;;;;;;;10479270;28;20065;-85
2023/12/07 17:30:54;;;;;;;119.13;44.53;;;;;;;;;;10470950;28;20135;-84
2023/12/07 17:35:55;;;;;;;122.30;46.23;;;;;;;;;;10444720;28;20057;-85
2023/12/07 17:40:56;;;;;;;133.17;47.50;;;;;;;;;;10444011;28;20475;-85
2023/12/07 17:45:57;;;;;;;116.80;47.53;;;;;;;;;;10437947;28;20565;-86
2023/12/07 17:50:58;;;;;;;117.83;47.80;;;;;;;;;;10433268;28;20128;-84
2023/12/07 17:55:59;;;;;;;118.77;45.70;;;;;;;;;;10431632;28;20028;-85
2023/12/07 18:01:00;;;;;;;115.57;48.67;;;;;;;;;;10413218;28;20871;-86
2023/12/07 18:06:07;;;;;;;124.20;50.93;;;;;;;;;;10429347;28;20188;-86
2023/12/07 18:11:08;;;;;;;136.87;52.40;;;;;;;;;;10441297;28;20406;-84
2023/12/07 18:16:09;;;;;;;126.10;49.70;;;;;;;;;;10417237;28;20063;-85
2023/12/07 18:21:10;;;;;;;131.33;50.80;;;;;;;;;;10437012;28;20520;-84
2023/12/07 18:26:12;;;;;;;137.80;53.70;;;;;;;;;;10436099;28;20040;-86
2023/12/07 18:31:16;;;;;;;149.33;56.50;;;;;;;;;;10439687;28;20048;-85
2023/12/07 18:36:17;;;;;;;144.73;57.27;;;;;;;;;;10499914;28;20024;-84
2023/12/07 18:41:18;;;;;;;146.40;56.80;;;;;;;;;;10480136;28;20393;-84
2023/12/07 18:46:19;;;;;;;144.57;56.57;;;;;;;;;;10493046;28;20020;-83
2023/12/07 18:51:27;;;;;;;139.13;55.50;;;;;;;;;;10482971;28;20407;-82
2023/12/07 18:56:28;;;;;;;151.53;59.97;;;;;;;;;;10495578;28;20031;-85
2023/12/07 19:01:30;;;;;;;146.20;54.10;;;;;;;;;;10461762;28;20035;-86
2023/12/07 19:06:31;;;;;;;159.37;60.93;;;;;;;;;;10498043;28;20036;-82
2023/12/07 19:11:32;;;;;;;161.53;60.83;;;;;;;;;;10495486;28;20028;-83
2023/12/07 19:16:33;;;;;;;154.30;59.40;;;;;;;;;;10469396;28;20044;-85
2023/12/07 19:21:37;;;;;;;134.43;51.10;;;;;;;;;;10475610;28;20045;-83
2023/12/07 19:26:39;;;;;;;153.03;59.07;;;;;;;;;;10492990;28;20033;-85
2023/12/07 19:31:43;;;;;;;132.70;52.17;;;;;;;;;;10488158;28;20060;-83
2023/12/07 19:36:45;;;;;;;149.83;58.97;;;;;;;;;;10481863;28;20059;-83
2023/12/07 19:41:46;;;;;;;174.90;68.97;;;;;;;;;;10467772;28;20044;-82
2023/12/07 19:46:47;;;;;;;170.50;67.90;;;;;;;;;;10461052;28;20087;-83
2023/12/07 19:51:48;;;;;;;181.83;74.57;;;;;;;;;;10420958;28;20047;-86
2023/12/07 19:56:56;;;;;;;184.80;73.23;;;;;;;;;;10445321;28;20061;-83
2023/12/07 20:01:57;;;;;;;158.47;59.90;;;;;;;;;;10450359;28;20029;-81
2023/12/07 20:06:58;;;;;;;157.77;57.47;;;;;;;;;;10432151;28;20120;-83
2023/12/07 20:11:59;;;;;;;166.70;61.03;;;;;;;;;;10471137;28;20028;-83
2023/12/07 20:17:00;;;;;;;159.60;57.87;;;;;;;;;;10463464;28;20047;-83
2023/12/07 20:22:02;;;;;;;165.60;61.67;;;;;;;;;;10495688;28;20064;-82
2023/12/07 20:27:03;;;;;;;167.73;66.17;;;;;;;;;;10518500;28;20032;-82
2023/12/07 20:32:11;;;;;;;184.70;68.30;;;;;;;;;;10480268;28;20139;-82
2023/12/07 20:37:12;;;;;;;183.17;71.37;;;;;;;;;;10447429;28;20029;-82
2023/12/07 20:42:21;;;;;;;171.80;64.00;;;;;;;;;;10447492;28;20045;-84
2023/12/07 20:47:22;;;;;;;167.33;62.60;;;;;;;;;;10436032;28;20033;-82
2023/12/07 20:52:24;;;;;;;179.20;65.73;;;;;;;;;;10452268;28;20102;-82
2023/12/07 20:57:25;;;;;;;163.50;65.17;;;;;;;;;;10436369;28;20055;-82
2023/12/07 21:02:26;;;;;;;177.10;63.27;;;;;;;;;;10432455;28;20037;-83
2023/12/07 21:07:27;;;;;;;164.30;63.23;;;;;;;;;;10449802;28;20484;-82
2023/12/07 21:12:28;;;;;;;169.73;64.60;;;;;;;;;;10449315;28;20029;-85
2023/12/07 21:17:31;;;;;;;178.13;68.37;;;;;;;;;;10446735;28;20024;-84
2023/12/07 21:22:32;;;;;;;177.70;67.47;;;;;;;;;;10448133;28;20044;-83
2023/12/07 21:27:33;;;;;;;188.13;71.77;;;;;;;;;;10438920;28;20068;-84
2023/12/07 21:32:41;;;;;;;174.97;64.77;;;;;;;;;;10427107;28;20199;-84
2023/12/07 21:37:42;;;;;;;183.23;68.13;;;;;;;;;;10419980;28;20027;-83
2023/12/07 21:42:43;;;;;;;185.57;63.10;;;;;;;;;;10437338;28;20146;-84
2023/12/07 21:47:44;;;;;;;184.20;67.67;;;;;;;;;;10450111;28;20039;-82
2023/12/07 21:52:45;;;;;;;160.83;61.23;;;;;;;;;;10430417;28;20116;-83
2023/12/07 21:57:47;;;;;;;166.00;64.63;;;;;;;;;;10439217;28;20033;-84
2023/12/07 22:02:48;;;;;;;175.73;66.30;;;;;;;;;;10412636;28;20079;-84
2023/12/07 22:07:49;;;;;;;178.23;66.00;;;;;;;;;;10449753;28;20124;-83
2023/12/07 22:12:50;;;;;;;193.20;66.13;;;;;;;;;;10448923;28;20072;-84
2023/12/07 22:17:51;;;;;;;170.73;66.47;;;;;;;;;;10445187;28;20528;-83
2023/12/07 22:22:52;;;;;;;192.87;68.47;;;;;;;;;;10448523;28;20045;-84
2023/12/07 22:27:53;;;;;;;174.23;60.77;;;;;;;;;;10425582;28;20036;-83
2023/12/07 22:32:54;;;;;;;175.03;64.70;;;;;;;;;;10473939;28;20048;-83
2023/12/07 22:37:58;;;;;;;187.57;68.93;;;;;;;;;;10479255;28;20108;-83
2023/12/07 22:42:59;;;;;;;192.57;70.00;;;;;;;;;;10492217;28;20036;-83
2023/12/07 22:48:00;;;;;;;183.47;67.47;;;;;;;;;;10486771;28;20107;-83
2023/12/07 22:53:01;;;;;;;217.77;81.23;;;;;;;;;;10486262;28;20487;-83
2023/12/07 22:58:02;;;;;;;208.33;72.60;;;;;;;;;;10483786;28;20037;-83
2023/12/07 23:03:03;;;;;;;194.50;76.60;;;;;;;;;;10477332;28;20028;-83
2023/12/07 23:08:04;;;;;;;218.53;78.93;;;;;;;;;;10488154;28;20036;-83
2023/12/07 23:13:05;;;;;;;225.43;87.77;;;;;;;;;;10488001;28;20179;-82
2023/12/07 23:18:06;;;;;;;193.27;77.07;;;;;;;;;;10488863;28;20383;-82
2023/12/07 23:23:07;;;;;;;230.37;89.93;;;;;;;;;;10465596;28;20045;-83
2023/12/07 23:28:08;;;;;;;236.93;94.07;;;;;;;;;;10496394;28;20659;-83
2023/12/07 23:33:16;;;;;;;249.60;96.57;;;;;;;;;;10487567;28;20136;-84
2023/12/07 23:38:17;;;;;;;213.47;84.00;;;;;;;;;;10486903;28;20120;-83
2023/12/07 23:43:18;;;;;;;220.67;84.93;;;;;;;;;;10503431;28;20048;-83
2023/12/07 23:48:19;;;;;;;220.13;83.17;;;;;;;;;;10484410;28;20532;-83
2023/12/07 23:53:21;;;;;;;209.33;81.30;;;;;;;;;;10496235;28;20554;-84
2023/12/07 23:58:22;;;;;;;225.23;83.03;;;;;;;;;;10492025;28;20025;-84
